sensor_id;sensor_type;location;lat;lon;timestamp;temperature;humidity
10312;DHT22;5201;48.776;9.128;2023-06-10T00:01:45;19.80;96.80
10312;DHT22;5201;48.776;9.128;2023-06-10T00:04:14;19.80;96.90
10312;DHT22;5201;48.776;9.128;2023-06-10T00:06:40;19.60;97.30
10312;DHT22;5201;48.776;9.128;2023-06-10T00:09:06;19.60;97.40
10312;DHT22;5201;48.776;9.128;2023-06-10T00:11:39;19.60;97.70
10312;DHT22;5201;48.776;9.128;2023-06-10T00:14:06;19.60;98.00
10312;DHT22;5201;48.776;9.128;2023-06-10T00:16:32;19.40;98.10
10312;DHT22;5201;48.776;9.128;2023-06-10T00:19:00;19.40;98.30
10312;DHT22;5201;48.776;9.128;2023-06-10T00:21:29;19.40;98.30
10312;DHT22;5201;48.776;9.128;2023-06-10T00:23:55;19.30;98.10
10312;DHT22;5201;48.776;9.128;2023-06-10T00:26:22;19.60;98.40
10312;DHT22;5201;48.776;9.128;2023-06-10T00:28:48;19.30;98.40
10312;DHT22;5201;48.776;9.128;2023-06-10T00:31:14;19.30;98.40
10312;DHT22;5201;48.776;9.128;2023-06-10T00:33:40;19.20;98.50
10312;DHT22;5201;48.776;9.128;2023-06-10T00:36:05;19.20;98.50
10312;DHT22;5201;48.776;9.128;2023-06-10T00:38:31;19.20;98.60
10312;DHT22;5201;48.776;9.128;2023-06-10T00:40:57;19.20;98.70
10312;DHT22;5201;48.776;9.128;2023-06-10T00:43:23;19.30;98.90
10312;DHT22;5201;48.776;9.128;2023-06-10T00:45:49;19.00;99.00
10312;DHT22;5201;48.776;9.128;2023-06-10T00:48:15;19.10;98.90
10312;DHT22;5201;48.776;9.128;2023-06-10T00:50:40;19.20;99.10
10312;DHT22;5201;48.776;9.128;2023-06-10T00:53:06;19.20;99.00
10312;DHT22;5201;48.776;9.128;2023-06-10T00:55:33;19.20;98.90
10312;DHT22;5201;48.776;9.128;2023-06-10T00:57:59;19.00;98.70
10312;DHT22;5201;48.776;9.128;2023-06-10T01:00:25;19.00;99.10
10312;DHT22;5201;48.776;9.128;2023-06-10T01:02:51;19.00;99.30
10312;DHT22;5201;48.776;9.128;2023-06-10T01:05:18;19.00;99.50
10312;DHT22;5201;48.776;9.128;2023-06-10T01:10:42;19.10;99.20
10312;DHT22;5201;48.776;9.128;2023-06-10T01:13:10;19.10;99.30
10312;DHT22;5201;48.776;9.128;2023-06-10T01:15:40;19.20;99.30
10312;DHT22;5201;48.776;9.128;2023-06-10T01:18:07;19.20;99.10
10312;DHT22;5201;48.776;9.128;2023-06-10T01:20:40;19.10;99.20
10312;DHT22;5201;48.776;9.128;2023-06-10T01:23:07;19.10;99.30
10312;DHT22;5201;48.776;9.128;2023-06-10T01:25:33;19.00;99.40
10312;DHT22;5201;48.776;9.128;2023-06-10T01:28:07;18.90;99.70
10312;DHT22;5201;48.776;9.128;2023-06-10T01:30:53;19.20;99.80
10312;DHT22;5201;48.776;9.128;2023-06-10T01:33:27;18.70;99.90
10312;DHT22;5201;48.776;9.128;2023-06-10T01:35:55;18.80;99.90
10312;DHT22;5201;48.776;9.128;2023-06-10T01:38:22;18.70;99.90
10312;DHT22;5201;48.776;9.128;2023-06-10T01:40:49;18.70;99.90
10312;DHT22;5201;48.776;9.128;2023-06-10T01:43:16;18.90;99.90
10312;DHT22;5201;48.776;9.128;2023-06-10T01:45:41;18.80;99.90
10312;DHT22;5201;48.776;9.128;2023-06-10T01:48:07;18.70;99.90
10312;DHT22;5201;48.776;9.128;2023-06-10T01:50:32;18.60;99.90
10312;DHT22;5201;48.776;9.128;2023-06-10T01:52:59;18.60;99.90
10312;DHT22;5201;48.776;9.128;2023-06-10T01:55:24;18.90;99.90
10312;DHT22;5201;48.776;9.128;2023-06-10T01:57:50;18.60;99.90
10312;DHT22;5201;48.776;9.128;2023-06-10T02:00:17;18.60;99.90
10312;DHT22;5201;48.776;9.128;2023-06-10T02:02:42;18.50;99.90
10312;DHT22;5201;48.776;9.128;2023-06-10T02:05:08;18.50;99.90
10312;DHT22;5201;48.776;9.128;2023-06-10T02:07:34;18.50;99.90
10312;DHT22;5201;48.776;9.128;2023-06-10T02:10:00;18.50;99.90
10312;DHT22;5201;48.776;9.128;2023-06-10T02:12:26;18.40;99.90
10312;DHT22;5201;48.776;9.128;2023-06-10T02:14:52;15.80;99.60
10312;DHT22;5201;48.776;9.128;2023-06-10T02:17:17;18.40;99.90
10312;DHT22;5201;48.776;9.128;2023-06-10T02:19:43;18.40;99.90
10312;DHT22;5201;48.776;9.128;2023-06-10T02:22:09;18.50;99.90
10312;DHT22;5201;48.776;9.128;2023-06-10T02:24:37;18.40;99.90
10312;DHT22;5201;48.776;9.128;2023-06-10T02:27:04;18.40;99.90
10312;DHT22;5201;48.776;9.128;2023-06-10T02:29:33;18.40;99.90
10312;DHT22;5201;48.776;9.128;2023-06-10T02:31:59;18.40;99.90
10312;DHT22;5201;48.776;9.128;2023-06-10T02:34:24;18.70;99.90
10312;DHT22;5201;48.776;9.128;2023-06-10T02:36:50;18.40;99.90
10312;DHT22;5201;48.776;9.128;2023-06-10T02:39:16;18.30;99.90
10312;DHT22;5201;48.776;9.128;2023-06-10T02:41:42;18.30;99.90
10312;DHT22;5201;48.776;9.128;2023-06-10T02:44:07;18.30;99.90
10312;DHT22;5201;48.776;9.128;2023-06-10T02:46:33;18.20;99.90
10312;DHT22;5201;48.776;9.128;2023-06-10T02:48:58;18.20;99.90
10312;DHT22;5201;48.776;9.128;2023-06-10T02:51:24;18.20;99.90
10312;DHT22;5201;48.776;9.128;2023-06-10T02:53:50;18.10;99.90
10312;DHT22;5201;48.776;9.128;2023-06-10T02:56:16;18.10;99.90
10312;DHT22;5201;48.776;9.128;2023-06-10T02:58:42;18.00;99.90
10312;DHT22;5201;48.776;9.128;2023-06-10T03:01:08;18.00;99.90
10312;DHT22;5201;48.776;9.128;2023-06-10T03:03:35;17.90;99.90
10312;DHT22;5201;48.776;9.128;2023-06-10T03:06:02;17.90;99.90
10312;DHT22;5201;48.776;9.128;2023-06-10T03:08:28;17.90;99.90
10312;DHT22;5201;48.776;9.128;2023-06-10T03:10:54;17.80;99.90
10312;DHT22;5201;48.776;9.128;2023-06-10T03:13:19;17.30;99.90
10312;DHT22;5201;48.776;9.128;2023-06-10T03:15:45;17.90;99.90
10312;DHT22;5201;48.776;9.128;2023-06-10T03:18:11;17.80;99.90
10312;DHT22;5201;48.776;9.128;2023-06-10T03:20:37;17.80;99.90
10312;DHT22;5201;48.776;9.128;2023-06-10T03:23:04;17.70;99.90
10312;DHT22;5201;48.776;9.128;2023-06-10T03:25:30;17.70;99.90
10312;DHT22;5201;48.776;9.128;2023-06-10T03:27:56;17.70;99.90
10312;DHT22;5201;48.776;9.128;2023-06-10T03:30:21;17.80;99.90
10312;DHT22;5201;48.776;9.128;2023-06-10T03:32:47;17.60;99.90
10312;DHT22;5201;48.776;9.128;2023-06-10T03:35:13;17.50;99.90
10312;DHT22;5201;48.776;9.128;2023-06-10T03:37:40;17.50;99.90
10312;DHT22;5201;48.776;9.128;2023-06-10T03:40:07;17.60;99.90
10312;DHT22;5201;48.776;9.128;2023-06-10T03:42:34;17.70;99.90
10312;DHT22;5201;48.776;9.128;2023-06-10T03:45:00;17.70;99.90
10312;DHT22;5201;48.776;9.128;2023-06-10T03:47:26;18.00;99.90
10312;DHT22;5201;48.776;9.128;2023-06-10T03:49:51;18.30;99.90
10312;DHT22;5201;48.776;9.128;2023-06-10T03:52:18;18.60;99.90
10312;DHT22;5201;48.776;9.128;2023-06-10T03:54:44;18.80;99.90
10312;DHT22;5201;48.776;9.128;2023-06-10T03:57:09;19.60;99.90
10312;DHT22;5201;48.776;9.128;2023-06-10T03:59:35;19.30;99.90
10312;DHT22;5201;48.776;9.128;2023-06-10T04:02:01;19.90;99.90
10312;DHT22;5201;48.776;9.128;2023-06-10T04:04:27;19.90;99.90
10312;DHT22;5201;48.776;9.128;2023-06-10T04:06:52;20.10;99.90
10312;DHT22;5201;48.776;9.128;2023-06-10T04:09:18;20.40;99.90
10312;DHT22;5201;48.776;9.128;2023-06-10T04:11:44;20.60;99.90
10312;DHT22;5201;48.776;9.128;2023-06-10T04:14:09;20.90;99.90
10312;DHT22;5201;48.776;9.128;2023-06-10T04:16:35;21.10;99.90
10312;DHT22;5201;48.776;9.128;2023-06-10T04:19:00;21.30;99.80
10312;DHT22;5201;48.776;9.128;2023-06-10T04:21:26;21.60;99.50
10312;DHT22;5201;48.776;9.128;2023-06-10T04:23:52;21.80;99.30
10312;DHT22;5201;48.776;9.128;2023-06-10T04:26:18;22.00;99.00
10312;DHT22;5201;48.776;9.128;2023-06-10T04:28:44;22.20;98.80
10312;DHT22;5201;48.776;9.128;2023-06-10T04:31:09;22.40;98.60
10312;DHT22;5201;48.776;9.128;2023-06-10T04:33:35;22.60;98.20
10312;DHT22;5201;48.776;9.128;2023-06-10T04:36:01;22.80;98.10
10312;DHT22;5201;48.776;9.128;2023-06-10T04:38:27;23.00;97.80
10312;DHT22;5201;48.776;9.128;2023-06-10T04:40:52;23.30;97.50
10312;DHT22;5201;48.776;9.128;2023-06-10T04:43:18;23.60;97.20
10312;DHT22;5201;48.776;9.128;2023-06-10T04:45:44;23.90;97.30
10312;DHT22;5201;48.776;9.128;2023-06-10T04:48:12;24.10;96.50
10312;DHT22;5201;48.776;9.128;2023-06-10T04:50:38;24.20;96.10
10312;DHT22;5201;48.776;9.128;2023-06-10T04:53:04;24.40;95.80
10312;DHT22;5201;48.776;9.128;2023-06-10T04:55:29;24.60;95.80
10312;DHT22;5201;48.776;9.128;2023-06-10T04:57:55;24.70;95.40
10312;DHT22;5201;48.776;9.128;2023-06-10T05:00:21;25.10;95.00
10312;DHT22;5201;48.776;9.128;2023-06-10T05:02:46;25.30;94.60
10312;DHT22;5201;48.776;9.128;2023-06-10T05:05:17;25.50;94.40
10312;DHT22;5201;48.776;9.128;2023-06-10T05:07:43;25.70;94.20
10312;DHT22;5201;48.776;9.128;2023-06-10T05:10:09;25.90;93.70
10312;DHT22;5201;48.776;9.128;2023-06-10T05:12:35;25.90;93.00
10312;DHT22;5201;48.776;9.128;2023-06-10T05:15:00;25.70;93.00
10312;DHT22;5201;48.776;9.128;2023-06-10T05:17:28;25.00;93.50
10312;DHT22;5201;48.776;9.128;2023-06-10T05:19:53;24.20;94.80
10312;DHT22;5201;48.776;9.128;2023-06-10T05:22:19;23.60;95.30
10312;DHT22;5201;48.776;9.128;2023-06-10T05:24:44;23.20;95.70
10312;DHT22;5201;48.776;9.128;2023-06-10T05:27:10;22.70;96.30
10312;DHT22;5201;48.776;9.128;2023-06-10T05:29:36;22.40;96.60
10312;DHT22;5201;48.776;9.128;2023-06-10T05:32:01;22.10;97.40
10312;DHT22;5201;48.776;9.128;2023-06-10T05:34:31;22.00;97.60
10312;DHT22;5201;48.776;9.128;2023-06-10T05:36:57;22.10;98.00
10312;DHT22;5201;48.776;9.128;2023-06-10T05:39:23;21.60;97.50
10312;DHT22;5201;48.776;9.128;2023-06-10T05:41:48;21.60;98.40
10312;DHT22;5201;48.776;9.128;2023-06-10T05:44:14;21.50;98.50
10312;DHT22;5201;48.776;9.128;2023-06-10T05:46:39;21.50;98.40
10312;DHT22;5201;48.776;9.128;2023-06-10T05:49:05;21.40;98.50
10312;DHT22;5201;48.776;9.128;2023-06-10T05:51:30;21.40;98.60
10312;DHT22;5201;48.776;9.128;2023-06-10T05:53:56;21.40;98.90
10312;DHT22;5201;48.776;9.128;2023-06-10T05:56:22;21.30;98.40
10312;DHT22;5201;48.776;9.128;2023-06-10T05:58:48;21.40;98.70
10312;DHT22;5201;48.776;9.128;2023-06-10T06:01:14;21.80;98.70
10312;DHT22;5201;48.776;9.128;2023-06-10T06:03:39;23.00;98.30
10312;DHT22;5201;48.776;9.128;2023-06-10T06:06:05;24.20;96.70
10312;DHT22;5201;48.776;9.128;2023-06-10T06:08:31;25.50;95.20
10312;DHT22;5201;48.776;9.128;2023-06-10T06:10:57;26.50;94.00
10312;DHT22;5201;48.776;9.128;2023-06-10T06:13:22;27.30;92.90
10312;DHT22;5201;48.776;9.128;2023-06-10T06:15:48;28.00;92.90
10312;DHT22;5201;48.776;9.128;2023-06-10T06:18:14;28.90;92.30
10312;DHT22;5201;48.776;9.128;2023-06-10T06:20:39;29.50;91.50
10312;DHT22;5201;48.776;9.128;2023-06-10T06:23:05;30.10;90.80
10312;DHT22;5201;48.776;9.128;2023-06-10T06:25:31;30.60;89.50
10312;DHT22;5201;48.776;9.128;2023-06-10T06:27:56;31.10;89.10
10312;DHT22;5201;48.776;9.128;2023-06-10T06:30:22;31.30;87.20
10312;DHT22;5201;48.776;9.128;2023-06-10T06:32:48;31.30;84.60
10312;DHT22;5201;48.776;9.128;2023-06-10T06:35:13;31.30;84.50
10312;DHT22;5201;48.776;9.128;2023-06-10T06:37:39;31.10;84.80
10312;DHT22;5201;48.776;9.128;2023-06-10T06:40:05;30.90;84.70
10312;DHT22;5201;48.776;9.128;2023-06-10T06:42:31;31.30;84.30
10312;DHT22;5201;48.776;9.128;2023-06-10T06:44:56;31.50;82.50
10312;DHT22;5201;48.776;9.128;2023-06-10T06:47:22;31.70;83.10
10312;DHT22;5201;48.776;9.128;2023-06-10T06:49:48;31.30;81.80
10312;DHT22;5201;48.776;9.128;2023-06-10T06:52:15;31.70;83.10
10312;DHT22;5201;48.776;9.128;2023-06-10T06:54:41;31.60;81.30
10312;DHT22;5201;48.776;9.128;2023-06-10T06:57:06;31.30;83.50
10312;DHT22;5201;48.776;9.128;2023-06-10T06:59:32;31.30;83.60
10312;DHT22;5201;48.776;9.128;2023-06-10T07:01:58;31.00;82.30
10312;DHT22;5201;48.776;9.128;2023-06-10T07:04:24;31.50;82.00
10312;DHT22;5201;48.776;9.128;2023-06-10T07:06:50;31.20;83.00
10312;DHT22;5201;48.776;9.128;2023-06-10T07:09:15;30.70;82.40
10312;DHT22;5201;48.776;9.128;2023-06-10T07:11:41;30.30;84.00
10312;DHT22;5201;48.776;9.128;2023-06-10T07:14:07;29.80;84.60
10312;DHT22;5201;48.776;9.128;2023-06-10T07:16:33;30.30;84.20
10312;DHT22;5201;48.776;9.128;2023-06-10T07:18:59;30.40;83.20
10312;DHT22;5201;48.776;9.128;2023-06-10T07:21:25;31.10;84.60
10312;DHT22;5201;48.776;9.128;2023-06-10T07:23:50;31.60;80.90
10312;DHT22;5201;48.776;9.128;2023-06-10T07:26:19;31.90;80.60
10312;DHT22;5201;48.776;9.128;2023-06-10T07:28:45;31.70;81.90
10312;DHT22;5201;48.776;9.128;2023-06-10T07:31:10;31.60;82.40
10312;DHT22;5201;48.776;9.128;2023-06-10T07:33:37;31.90;79.60
10312;DHT22;5201;48.776;9.128;2023-06-10T07:36:05;32.00;79.20
10312;DHT22;5201;48.776;9.128;2023-06-10T07:38:31;32.20;79.80
10312;DHT22;5201;48.776;9.128;2023-06-10T07:40:56;32.40;80.30
10312;DHT22;5201;48.776;9.128;2023-06-10T07:43:22;33.10;80.00
10312;DHT22;5201;48.776;9.128;2023-06-10T07:45:47;33.10;78.50
10312;DHT22;5201;48.776;9.128;2023-06-10T07:48:13;33.60;79.10
10312;DHT22;5201;48.776;9.128;2023-06-10T07:50:39;34.00;77.90
10312;DHT22;5201;48.776;9.128;2023-06-10T07:53:05;34.00;75.80
10312;DHT22;5201;48.776;9.128;2023-06-10T07:55:31;33.70;76.00
10312;DHT22;5201;48.776;9.128;2023-06-10T07:57:56;33.50;76.40
10312;DHT22;5201;48.776;9.128;2023-06-10T08:00:22;32.70;77.00
10312;DHT22;5201;48.776;9.128;2023-06-10T08:02:48;32.70;79.20
10312;DHT22;5201;48.776;9.128;2023-06-10T08:05:13;33.00;79.00
10312;DHT22;5201;48.776;9.128;2023-06-10T08:07:40;32.90;77.30
10312;DHT22;5201;48.776;9.128;2023-06-10T08:10:06;32.40;78.70
10312;DHT22;5201;48.776;9.128;2023-06-10T08:12:32;32.60;79.70
10312;DHT22;5201;48.776;9.128;2023-06-10T08:14:58;33.00;78.60
10312;DHT22;5201;48.776;9.128;2023-06-10T08:17:24;32.70;77.60
10312;DHT22;5201;48.776;9.128;2023-06-10T08:19:49;32.30;78.40
10312;DHT22;5201;48.776;9.128;2023-06-10T08:22:15;32.10;79.70
10312;DHT22;5201;48.776;9.128;2023-06-10T08:24:41;32.20;80.60
10312;DHT22;5201;48.776;9.128;2023-06-10T08:27:06;32.50;79.00
10312;DHT22;5201;48.776;9.128;2023-06-10T08:29:32;32.30;78.50
10312;DHT22;5201;48.776;9.128;2023-06-10T08:31:58;32.20;78.20
10312;DHT22;5201;48.776;9.128;2023-06-10T08:34:23;32.00;78.60
10312;DHT22;5201;48.776;9.128;2023-06-10T08:36:49;32.10;79.80
10312;DHT22;5201;48.776;9.128;2023-06-10T08:39:23;32.10;79.30
10312;DHT22;5201;48.776;9.128;2023-06-10T08:42:04;32.50;78.20
10312;DHT22;5201;48.776;9.128;2023-06-10T08:44:31;32.50;77.80
10312;DHT22;5201;48.776;9.128;2023-06-10T08:47:02;31.70;78.90
10312;DHT22;5201;48.776;9.128;2023-06-10T08:49:30;32.20;78.20
10312;DHT22;5201;48.776;9.128;2023-06-10T08:51:59;32.30;78.50
10312;DHT22;5201;48.776;9.128;2023-06-10T08:54:30;32.70;78.00
10312;DHT22;5201;48.776;9.128;2023-06-10T08:56:57;32.20;77.80
10312;DHT22;5201;48.776;9.128;2023-06-10T08:59:25;31.30;78.30
10312;DHT22;5201;48.776;9.128;2023-06-10T09:01:52;31.20;78.80
10312;DHT22;5201;48.776;9.128;2023-06-10T09:04:19;31.40;79.10
10312;DHT22;5201;48.776;9.128;2023-06-10T09:06:46;31.90;78.90
10312;DHT22;5201;48.776;9.128;2023-06-10T09:09:14;32.30;77.80
10312;DHT22;5201;48.776;9.128;2023-06-10T09:11:42;31.90;77.30
10312;DHT22;5201;48.776;9.128;2023-06-10T09:14:08;32.00;78.40
10312;DHT22;5201;48.776;9.128;2023-06-10T09:16:34;31.60;79.00
10312;DHT22;5201;48.776;9.128;2023-06-10T09:18:59;31.60;79.80
10312;DHT22;5201;48.776;9.128;2023-06-10T09:21:25;31.60;77.40
10312;DHT22;5201;48.776;9.128;2023-06-10T09:23:51;31.30;78.30
10312;DHT22;5201;48.776;9.128;2023-06-10T09:26:18;31.00;78.50
10312;DHT22;5201;48.776;9.128;2023-06-10T09:29:04;30.90;79.60
10312;DHT22;5201;48.776;9.128;2023-06-10T09:31:31;30.70;79.00
10312;DHT22;5201;48.776;9.128;2023-06-10T09:36:36;30.90;80.50
10312;DHT22;5201;48.776;9.128;2023-06-10T09:39:03;30.90;79.00
10312;DHT22;5201;48.776;9.128;2023-06-10T09:41:32;30.50;80.10
10312;DHT22;5201;48.776;9.128;2023-06-10T09:43:59;30.80;80.00
10312;DHT22;5201;48.776;9.128;2023-06-10T09:46:30;30.90;79.80
10312;DHT22;5201;48.776;9.128;2023-06-10T09:48:57;30.90;78.60
10312;DHT22;5201;48.776;9.128;2023-06-10T09:51:23;30.70;79.10
10312;DHT22;5201;48.776;9.128;2023-06-10T09:53:51;30.90;80.00
10312;DHT22;5201;48.776;9.128;2023-06-10T09:56:16;31.00;79.60
10312;DHT22;5201;48.776;9.128;2023-06-10T09:58:42;30.70;78.70
10312;DHT22;5201;48.776;9.128;2023-06-10T10:01:10;29.90;80.70
10312;DHT22;5201;48.776;9.128;2023-06-10T10:03:52;30.30;80.40
10312;DHT22;5201;48.776;9.128;2023-06-10T10:06:19;30.90;79.70
10312;DHT22;5201;48.776;9.128;2023-06-10T10:08:47;31.30;82.30
10312;DHT22;5201;48.776;9.128;2023-06-10T10:11:17;31.70;78.30
10312;DHT22;5201;48.776;9.128;2023-06-10T10:13:45;31.30;78.90
10312;DHT22;5201;48.776;9.128;2023-06-10T10:16:23;31.40;78.60
10312;DHT22;5201;48.776;9.128;2023-06-10T10:18:55;31.20;79.20
10312;DHT22;5201;48.776;9.128;2023-06-10T10:21:26;31.20;78.80
10312;DHT22;5201;48.776;9.128;2023-06-10T10:24:03;31.30;81.00
10312;DHT22;5201;48.776;9.128;2023-06-10T10:26:31;31.80;78.90
10312;DHT22;5201;48.776;9.128;2023-06-10T10:29:30;31.70;79.00
10312;DHT22;5201;48.776;9.128;2023-06-10T10:31:57;32.00;79.50
10312;DHT22;5201;48.776;9.128;2023-06-10T10:34:41;32.50;78.20
10312;DHT22;5201;48.776;9.128;2023-06-10T10:37:09;32.30;77.40
10312;DHT22;5201;48.776;9.128;2023-06-10T10:39:36;32.40;77.40
10312;DHT22;5201;48.776;9.128;2023-06-10T10:42:03;32.50;77.40
10312;DHT22;5201;48.776;9.128;2023-06-10T10:44:30;32.50;77.80
10312;DHT22;5201;48.776;9.128;2023-06-10T10:46:57;32.50;76.30
10312;DHT22;5201;48.776;9.128;2023-06-10T10:49:27;32.30;77.70
10312;DHT22;5201;48.776;9.128;2023-06-10T10:51:59;32.30;77.10
10312;DHT22;5201;48.776;9.128;2023-06-10T10:54:29;32.20;77.90
10312;DHT22;5201;48.776;9.128;2023-06-10T11:02:09;30.70;80.40
10312;DHT22;5201;48.776;9.128;2023-06-10T11:04:34;30.50;81.80
10312;DHT22;5201;48.776;9.128;2023-06-10T11:07:06;30.40;82.10
10312;DHT22;5201;48.776;9.128;2023-06-10T11:09:32;30.60;81.60
10312;DHT22;5201;48.776;9.128;2023-06-10T11:11:58;30.70;82.10
10312;DHT22;5201;48.776;9.128;2023-06-10T11:14:28;30.30;79.60
10312;DHT22;5201;48.776;9.128;2023-06-10T11:16:56;29.80;80.60
10312;DHT22;5201;48.776;9.128;2023-06-10T11:19:35;29.40;81.00
10312;DHT22;5201;48.776;9.128;2023-06-10T11:22:06;29.40;81.70
10312;DHT22;5201;48.776;9.128;2023-06-10T11:24:32;29.60;82.20
10312;DHT22;5201;48.776;9.128;2023-06-10T11:30:18;30.00;82.10
10312;DHT22;5201;48.776;9.128;2023-06-10T11:32:45;30.50;82.30
10312;DHT22;5201;48.776;9.128;2023-06-10T11:35:17;30.70;79.50
10312;DHT22;5201;48.776;9.128;2023-06-10T11:37:43;30.50;78.70
10312;DHT22;5201;48.776;9.128;2023-06-10T11:40:09;30.20;78.50
10312;DHT22;5201;48.776;9.128;2023-06-10T11:42:40;30.10;80.00
10312;DHT22;5201;48.776;9.128;2023-06-10T11:45:06;30.50;79.90
10312;DHT22;5201;48.776;9.128;2023-06-10T11:47:33;30.40;79.30
10312;DHT22;5201;48.776;9.128;2023-06-10T11:49:59;30.40;79.40
10312;DHT22;5201;48.776;9.128;2023-06-10T11:52:31;30.30;79.70
10312;DHT22;5201;48.776;9.128;2023-06-10T11:54:59;30.20;79.70
10312;DHT22;5201;48.776;9.128;2023-06-10T11:57:24;30.10;78.70
10312;DHT22;5201;48.776;9.128;2023-06-10T11:59:50;29.90;79.70
10312;DHT22;5201;48.776;9.128;2023-06-10T12:02:17;29.80;80.90
10312;DHT22;5201;48.776;9.128;2023-06-10T12:04:42;29.90;79.70
10312;DHT22;5201;48.776;9.128;2023-06-10T12:07:08;30.10;80.30
10312;DHT22;5201;48.776;9.128;2023-06-10T12:09:34;30.20;78.40
10312;DHT22;5201;48.776;9.128;2023-06-10T12:12:05;30.10;78.80
10312;DHT22;5201;48.776;9.128;2023-06-10T12:14:54;29.90;78.80
10312;DHT22;5201;48.776;9.128;2023-06-10T12:17:22;29.50;79.50
10312;DHT22;5201;48.776;9.128;2023-06-10T12:19:48;29.30;80.10
10312;DHT22;5201;48.776;9.128;2023-06-10T12:22:14;29.10;81.00
10312;DHT22;5201;48.776;9.128;2023-06-10T12:24:57;28.90;80.50
10312;DHT22;5201;48.776;9.128;2023-06-10T12:27:27;28.70;81.20
10312;DHT22;5201;48.776;9.128;2023-06-10T12:29:55;28.80;81.20
10312;DHT22;5201;48.776;9.128;2023-06-10T12:32:21;28.90;80.70
10312;DHT22;5201;48.776;9.128;2023-06-10T12:35:05;29.00;79.80
10312;DHT22;5201;48.776;9.128;2023-06-10T12:37:31;29.00;80.80
10312;DHT22;5201;48.776;9.128;2023-06-10T12:40:01;29.00;80.20
10312;DHT22;5201;48.776;9.128;2023-06-10T12:42:32;29.10;79.20
10312;DHT22;5201;48.776;9.128;2023-06-10T12:45:00;28.90;78.80
10312;DHT22;5201;48.776;9.128;2023-06-10T12:47:35;28.90;79.50
10312;DHT22;5201;48.776;9.128;2023-06-10T12:50:01;28.80;78.90
10312;DHT22;5201;48.776;9.128;2023-06-10T12:52:28;28.70;79.30
10312;DHT22;5201;48.776;9.128;2023-06-10T12:54:54;28.70;79.80
10312;DHT22;5201;48.776;9.128;2023-06-10T12:57:23;28.70;79.40
10312;DHT22;5201;48.776;9.128;2023-06-10T12:59:49;28.50;80.40
10312;DHT22;5201;48.776;9.128;2023-06-10T13:02:20;28.50;81.20
10312;DHT22;5201;48.776;9.128;2023-06-10T13:04:49;28.50;81.50
10312;DHT22;5201;48.776;9.128;2023-06-10T13:07:15;28.50;81.90
10312;DHT22;5201;48.776;9.128;2023-06-10T13:09:41;28.80;81.40
10312;DHT22;5201;48.776;9.128;2023-06-10T13:12:07;28.80;80.80
10312;DHT22;5201;48.776;9.128;2023-06-10T13:14:33;28.90;79.60
10312;DHT22;5201;48.776;9.128;2023-06-10T13:16:59;28.80;79.60
10312;DHT22;5201;48.776;9.128;2023-06-10T13:19:25;28.60;79.60
10312;DHT22;5201;48.776;9.128;2023-06-10T13:21:51;28.50;80.30
10312;DHT22;5201;48.776;9.128;2023-06-10T13:24:17;28.60;80.40
10312;DHT22;5201;48.776;9.128;2023-06-10T13:26:43;28.50;80.80
10312;DHT22;5201;48.776;9.128;2023-06-10T13:29:09;28.60;81.10
10312;DHT22;5201;48.776;9.128;2023-06-10T13:31:39;28.40;80.40
10312;DHT22;5201;48.776;9.128;2023-06-10T13:34:05;28.30;80.90
10312;DHT22;5201;48.776;9.128;2023-06-10T13:36:31;28.20;82.00
10312;DHT22;5201;48.776;9.128;2023-06-10T13:38:57;28.20;81.80
10312;DHT22;5201;48.776;9.128;2023-06-10T13:41:23;28.20;81.90
10312;DHT22;5201;48.776;9.128;2023-06-10T13:43:48;28.30;82.00
10312;DHT22;5201;48.776;9.128;2023-06-10T13:46:14;28.40;81.00
10312;DHT22;5201;48.776;9.128;2023-06-10T13:48:39;28.70;81.00
10312;DHT22;5201;48.776;9.128;2023-06-10T13:51:05;28.80;80.10
10312;DHT22;5201;48.776;9.128;2023-06-10T13:53:32;28.90;80.40
10312;DHT22;5201;48.776;9.128;2023-06-10T13:55:57;29.00;79.50
10312;DHT22;5201;48.776;9.128;2023-06-10T13:58:23;29.10;79.00
10312;DHT22;5201;48.776;9.128;2023-06-10T14:00:49;29.00;79.10
10312;DHT22;5201;48.776;9.128;2023-06-10T14:03:14;28.70;79.40
10312;DHT22;5201;48.776;9.128;2023-06-10T14:05:40;28.50;78.70
10312;DHT22;5201;48.776;9.128;2023-06-10T14:08:05;28.30;78.80
10312;DHT22;5201;48.776;9.128;2023-06-10T14:10:31;28.20;79.40
10312;DHT22;5201;48.776;9.128;2023-06-10T14:12:57;28.10;79.90
10312;DHT22;5201;48.776;9.128;2023-06-10T14:15:22;28.00;81.10
10312;DHT22;5201;48.776;9.128;2023-06-10T14:17:48;28.00;80.50
10312;DHT22;5201;48.776;9.128;2023-06-10T14:20:13;27.90;80.00
10312;DHT22;5201;48.776;9.128;2023-06-10T14:22:39;28.00;80.70
10312;DHT22;5201;48.776;9.128;2023-06-10T14:25:06;28.00;81.30
10312;DHT22;5201;48.776;9.128;2023-06-10T14:27:31;28.10;78.80
10312;DHT22;5201;48.776;9.128;2023-06-10T14:29:57;28.10;79.70
10312;DHT22;5201;48.776;9.128;2023-06-10T14:32:22;28.20;80.60
10312;DHT22;5201;48.776;9.128;2023-06-10T14:34:48;28.20;80.20
10312;DHT22;5201;48.776;9.128;2023-06-10T14:37:14;28.20;79.80
10312;DHT22;5201;48.776;9.128;2023-06-10T14:39:39;28.30;79.50
10312;DHT22;5201;48.776;9.128;2023-06-10T14:42:05;28.30;79.20
10312;DHT22;5201;48.776;9.128;2023-06-10T14:44:31;28.20;79.70
10312;DHT22;5201;48.776;9.128;2023-06-10T14:46:57;28.30;80.30
10312;DHT22;5201;48.776;9.128;2023-06-10T14:49:22;28.40;80.70
10312;DHT22;5201;48.776;9.128;2023-06-10T14:51:48;28.50;80.80
10312;DHT22;5201;48.776;9.128;2023-06-10T14:54:15;28.60;80.50
10312;DHT22;5201;48.776;9.128;2023-06-10T14:56:41;28.60;80.00
10312;DHT22;5201;48.776;9.128;2023-06-10T14:59:06;28.50;80.70
10312;DHT22;5201;48.776;9.128;2023-06-10T15:01:32;28.40;80.70
10312;DHT22;5201;48.776;9.128;2023-06-10T15:03:57;28.30;81.30
10312;DHT22;5201;48.776;9.128;2023-06-10T15:06:23;28.30;80.70
10312;DHT22;5201;48.776;9.128;2023-06-10T15:08:49;28.20;81.00
10312;DHT22;5201;48.776;9.128;2023-06-10T15:11:15;28.20;80.50
10312;DHT22;5201;48.776;9.128;2023-06-10T15:13:41;28.10;79.60
10312;DHT22;5201;48.776;9.128;2023-06-10T15:16:06;28.10;80.00
10312;DHT22;5201;48.776;9.128;2023-06-10T15:18:32;28.10;80.80
10312;DHT22;5201;48.776;9.128;2023-06-10T15:20:58;28.20;81.10
10312;DHT22;5201;48.776;9.128;2023-06-10T15:23:24;28.20;80.80
10312;DHT22;5201;48.776;9.128;2023-06-10T15:25:50;28.10;81.30
10312;DHT22;5201;48.776;9.128;2023-06-10T15:28:15;28.10;81.30
10312;DHT22;5201;48.776;9.128;2023-06-10T15:30:41;28.00;81.70
10312;DHT22;5201;48.776;9.128;2023-06-10T15:33:06;28.10;82.40
10312;DHT22;5201;48.776;9.128;2023-06-10T15:35:33;28.00;81.80
10312;DHT22;5201;48.776;9.128;2023-06-10T15:37:58;28.10;80.90
10312;DHT22;5201;48.776;9.128;2023-06-10T15:40:24;28.10;80.00
10312;DHT22;5201;48.776;9.128;2023-06-10T15:42:51;28.10;80.10
10312;DHT22;5201;48.776;9.128;2023-06-10T15:45:16;28.00;80.70
10312;DHT22;5201;48.776;9.128;2023-06-10T15:47:42;28.00;80.30
10312;DHT22;5201;48.776;9.128;2023-06-10T15:50:08;28.00;80.10
10312;DHT22;5201;48.776;9.128;2023-06-10T15:52:34;27.90;79.00
10312;DHT22;5201;48.776;9.128;2023-06-10T15:55:00;28.00;79.20
10312;DHT22;5201;48.776;9.128;2023-06-10T15:57:27;27.90;79.80